This is the latest recevied weather packets stored in our database for station/object W0DP. If no packets are shown the sender has not sent any weather packets the latest 10 day(s).
| Time | Temp. | Humidity | Pressure | Rain* | Wind** | Luminosity | Snow |
|---|---|---|---|---|---|---|---|
| 1777722917 | 1.67° C | 88% | 1022.5 hPa | 0 mm | - | - | - |
| 1777721717 | 0.56° C | 89% | 1022.3 hPa | 0 mm | - | - | - |
| 1777719917 | 0° C | 88% | 1022.2 hPa | 0 mm | - | - | - |
| 1777716917 | 1.11° C | 85% | 1021.8 hPa | 0 mm | - | - | - |
| 1777713316 | 1.67° C | 83% | 1021.8 hPa | 0 mm | - | - | - |
| 1777707316 | 2.78° C | 79% | 1021.8 hPa | 0 mm | - | - | - |
| 1777706716 | 2.78° C | 78% | 1021.8 hPa | 0 mm | - | - | - |
| 1777703116 | 4.44° C | 75% | 1021.7 hPa | 0 mm | - | - | - |
| 1777702536 | 5° C | 74% | 1021.8 hPa | 0 mm | - | - | - |
| 1777700116 | 5° C | 72% | 1021.9 hPa | 0 mm | - | - | - |
| 1777699516 | 5.56° C | 71% | 1021.9 hPa | 0 mm | - | - | - |
| 1777698916 | 5.56° C | 70% | 1021.7 hPa | 0 mm | - | - | - |
| 1777698316 | 5.56° C | 69% | 1021.6 hPa | 0 mm | - | - | - |
| 1777694716 | 6.67° C | 67% | 1021.1 hPa | 0 mm | - | - | - |
| 1777689356 | 8.33° C | 62% | 1020.7 hPa | 0 mm | - | - | - |
| 1777685135 | 10° C | 57% | 1019.8 hPa | 0 mm | - | - | - |
| 1777684516 | 10.56° C | 55% | 1019.4 hPa | 0 mm | - | - | - |
| 1777680917 | 12.22° C | 46% | 1018.8 hPa | 0 mm | - | - | - |
| 1777679717 | 12.78° C | 47% | 1019.1 hPa | 0 mm | - | - | - |
| 1777676717 | 12.78° C | 48% | 1019.1 hPa | 0 mm | - | - | - |
| 1777674318 | 13.33° C | 47% | 1019.1 hPa | 0 mm | - | - | - |
| 1777668317 | 13.89° C | 46% | 1019.1 hPa | 0 mm | - | - | - |
| 1777662317 | 14.44° C | 45% | 1018.9 hPa | 0 mm | - | - | - |
| 1777659316 | 13.89° C | 44% | 1018.9 hPa | 0 mm | - | - | - |
| 1777656316 | 17.22° C | 50% | 1019 hPa | 0 mm | - | - | - |
* Rain latest hour (hover to see other rain measurements)
** Current wind speed in m/s (hover to see current wind gust speed)